Heavener, Oklahoma
Current Conditions -  °F | °C
As of 6:35 AM on Monday 24 Nov 2014 (Local Time) from KRKR Reporting Station
Clear Clear  
Wind Chill: 33°   Ceiling: Unl
Heat Index: 37°   Visibility: 10mi
Dew Point: 33°   Wind: 5mph
Humidity: 86%   Direction: 190°S
Pressure: 29.89"   Gusts: NA
Location:  34.89°N, 94.6°W
Report Text: KRKR 241235Z AUTO 19004KT 10SM CLR 03/00 A2989 RMK AO2 T00260004
Loading
Personal Weather Stations






























Interactive Weather Map New forecast layout! Learn more

10-Day Weather Forecast

Advertisements
Track Severe Weather on mobile